sensor_id;sensor_type;location;lat;lon;timestamp;P1;durP1;ratioP1;P2;durP2;ratioP2
51288;SDS011;37372;52.294;5.152;2023-08-06T00:02:15;30.90;;;19.67;;
51288;SDS011;37372;52.294;5.152;2023-08-06T00:04:42;27.85;;;20.10;;
51288;SDS011;37372;52.294;5.152;2023-08-06T00:07:13;25.95;;;19.17;;
51288;SDS011;37372;52.294;5.152;2023-08-06T00:09:40;21.95;;;17.83;;
51288;SDS011;37372;52.294;5.152;2023-08-06T00:12:13;25.42;;;16.48;;
51288;SDS011;37372;52.294;5.152;2023-08-06T00:14:40;27.67;;;16.65;;
51288;SDS011;37372;52.294;5.152;2023-08-06T00:17:14;24.08;;;16.98;;
51288;SDS011;37372;52.294;5.152;2023-08-06T00:19:43;21.38;;;15.68;;
51288;SDS011;37372;52.294;5.152;2023-08-06T00:22:17;19.55;;;14.48;;
51288;SDS011;37372;52.294;5.152;2023-08-06T00:24:45;22.02;;;13.80;;
51288;SDS011;37372;52.294;5.152;2023-08-06T00:27:19;17.95;;;14.05;;
51288;SDS011;37372;52.294;5.152;2023-08-06T00:29:49;22.30;;;14.38;;
51288;SDS011;37372;52.294;5.152;2023-08-06T00:32:19;21.10;;;13.85;;
51288;SDS011;37372;52.294;5.152;2023-08-06T00:34:47;17.50;;;12.75;;
51288;SDS011;37372;52.294;5.152;2023-08-06T00:37:21;21.45;;;13.30;;
51288;SDS011;37372;52.294;5.152;2023-08-06T00:39:48;20.45;;;13.25;;
51288;SDS011;37372;52.294;5.152;2023-08-06T00:42:24;21.85;;;13.85;;
51288;SDS011;37372;52.294;5.152;2023-08-06T00:44:54;18.63;;;13.35;;
51288;SDS011;37372;52.294;5.152;2023-08-06T00:47:21;22.55;;;13.82;;
51288;SDS011;37372;52.294;5.152;2023-08-06T00:49:48;19.67;;;12.75;;
51288;SDS011;37372;52.294;5.152;2023-08-06T00:52:25;18.73;;;14.10;;
51288;SDS011;37372;52.294;5.152;2023-08-06T00:54:53;18.15;;;13.05;;
51288;SDS011;37372;52.294;5.152;2023-08-06T00:57:25;18.52;;;13.18;;
51288;SDS011;37372;52.294;5.152;2023-08-06T00:59:53;17.77;;;12.38;;
51288;SDS011;37372;52.294;5.152;2023-08-06T01:02:28;22.63;;;12.95;;
51288;SDS011;37372;52.294;5.152;2023-08-06T01:04:54;16.17;;;12.05;;
51288;SDS011;37372;52.294;5.152;2023-08-06T01:16:08;16.85;;;11.50;;
51288;SDS011;37372;52.294;5.152;2023-08-06T01:18:36;18.02;;;13.55;;
51288;SDS011;37372;52.294;5.152;2023-08-06T01:21:04;18.20;;;12.25;;
51288;SDS011;37372;52.294;5.152;2023-08-06T01:23:29;17.92;;;12.10;;
51288;SDS011;37372;52.294;5.152;2023-08-06T01:31:41;19.10;;;11.68;;
51288;SDS011;37372;52.294;5.152;2023-08-06T01:34:13;22.95;;;12.05;;
51288;SDS011;37372;52.294;5.152;2023-08-06T01:36:46;16.52;;;11.48;;
51288;SDS011;37372;52.294;5.152;2023-08-06T01:39:13;15.82;;;11.50;;
51288;SDS011;37372;52.294;5.152;2023-08-06T01:41:41;17.00;;;11.20;;
51288;SDS011;37372;52.294;5.152;2023-08-06T01:44:06;19.85;;;12.45;;
51288;SDS011;37372;52.294;5.152;2023-08-06T01:46:32;14.70;;;10.68;;
51288;SDS011;37372;52.294;5.152;2023-08-06T01:48:58;15.93;;;11.82;;
51288;SDS011;37372;52.294;5.152;2023-08-06T01:51:24;20.25;;;12.48;;
51288;SDS011;37372;52.294;5.152;2023-08-06T01:53:49;19.40;;;12.05;;
51288;SDS011;37372;52.294;5.152;2023-08-06T01:56:15;20.77;;;13.15;;
51288;SDS011;37372;52.294;5.152;2023-08-06T01:58:40;20.67;;;14.27;;
51288;SDS011;37372;52.294;5.152;2023-08-06T02:01:05;18.90;;;13.00;;
51288;SDS011;37372;52.294;5.152;2023-08-06T02:03:31;20.30;;;13.43;;
51288;SDS011;37372;52.294;5.152;2023-08-06T02:05:56;22.33;;;14.65;;
51288;SDS011;37372;52.294;5.152;2023-08-06T02:08:22;23.75;;;16.23;;
51288;SDS011;37372;52.294;5.152;2023-08-06T02:10:48;23.30;;;15.20;;
51288;SDS011;37372;52.294;5.152;2023-08-06T02:13:16;31.05;;;18.27;;
51288;SDS011;37372;52.294;5.152;2023-08-06T02:15:46;24.55;;;16.75;;
51288;SDS011;37372;52.294;5.152;2023-08-06T02:18:24;25.02;;;18.23;;
51288;SDS011;37372;52.294;5.152;2023-08-06T02:20:57;25.13;;;19.10;;
51288;SDS011;37372;52.294;5.152;2023-08-06T02:23:23;25.77;;;19.75;;
51288;SDS011;37372;52.294;5.152;2023-08-06T02:25:56;26.00;;;18.90;;
51288;SDS011;37372;52.294;5.152;2023-08-06T02:28:26;26.83;;;18.95;;
51288;SDS011;37372;52.294;5.152;2023-08-06T02:30:52;27.90;;;20.10;;
51288;SDS011;37372;52.294;5.152;2023-08-06T02:33:22;25.83;;;20.77;;
51288;SDS011;37372;52.294;5.152;2023-08-06T02:35:48;28.40;;;21.45;;
51288;SDS011;37372;52.294;5.152;2023-08-06T02:38:23;30.48;;;21.17;;
51288;SDS011;37372;52.294;5.152;2023-08-06T02:40:50;28.63;;;21.02;;
51288;SDS011;37372;52.294;5.152;2023-08-06T02:43:24;31.13;;;21.10;;
51288;SDS011;37372;52.294;5.152;2023-08-06T02:45:58;26.42;;;21.02;;
51288;SDS011;37372;52.294;5.152;2023-08-06T02:48:27;31.63;;;21.75;;
51288;SDS011;37372;52.294;5.152;2023-08-06T02:50:53;29.30;;;21.73;;
51288;SDS011;37372;52.294;5.152;2023-08-06T02:53:28;31.13;;;23.45;;
51288;SDS011;37372;52.294;5.152;2023-08-06T02:55:54;31.95;;;22.65;;
51288;SDS011;37372;52.294;5.152;2023-08-06T02:58:28;34.97;;;23.60;;
51288;SDS011;37372;52.294;5.152;2023-08-06T03:01:04;32.90;;;23.30;;
51288;SDS011;37372;52.294;5.152;2023-08-06T03:03:33;31.42;;;22.80;;
51288;SDS011;37372;52.294;5.152;2023-08-06T03:05:59;33.17;;;23.23;;
51288;SDS011;37372;52.294;5.152;2023-08-06T03:08:27;33.35;;;22.80;;
51288;SDS011;37372;52.294;5.152;2023-08-06T03:10:54;33.88;;;24.05;;
51288;SDS011;37372;52.294;5.152;2023-08-06T03:13:29;27.90;;;20.75;;
51288;SDS011;37372;52.294;5.152;2023-08-06T03:15:56;33.65;;;23.58;;
51288;SDS011;37372;52.294;5.152;2023-08-06T03:18:28;29.67;;;22.95;;
51288;SDS011;37372;52.294;5.152;2023-08-06T03:20:54;32.15;;;24.48;;
51288;SDS011;37372;52.294;5.152;2023-08-06T03:23:32;26.73;;;21.40;;
51288;SDS011;37372;52.294;5.152;2023-08-06T03:26:01;32.35;;;23.17;;
51288;SDS011;37372;52.294;5.152;2023-08-06T03:28:31;29.27;;;22.55;;
51288;SDS011;37372;52.294;5.152;2023-08-06T03:31:02;28.70;;;21.88;;
51288;SDS011;37372;52.294;5.152;2023-08-06T03:33:34;28.67;;;22.48;;
51288;SDS011;37372;52.294;5.152;2023-08-06T03:36:00;28.02;;;22.13;;
51288;SDS011;37372;52.294;5.152;2023-08-06T03:38:32;33.22;;;23.67;;
51288;SDS011;37372;52.294;5.152;2023-08-06T03:41:04;31.48;;;22.00;;
51288;SDS011;37372;52.294;5.152;2023-08-06T03:43:33;29.15;;;21.65;;
51288;SDS011;37372;52.294;5.152;2023-08-06T03:45:59;27.55;;;20.77;;
51288;SDS011;37372;52.294;5.152;2023-08-06T03:48:35;30.52;;;22.52;;
51288;SDS011;37372;52.294;5.152;2023-08-06T03:51:01;27.23;;;21.38;;
51288;SDS011;37372;52.294;5.152;2023-08-06T03:53:34;31.02;;;21.27;;
51288;SDS011;37372;52.294;5.152;2023-08-06T03:56:00;24.90;;;19.05;;
51288;SDS011;37372;52.294;5.152;2023-08-06T03:58:34;25.27;;;18.70;;
51288;SDS011;37372;52.294;5.152;2023-08-06T04:01:03;28.20;;;18.30;;
51288;SDS011;37372;52.294;5.152;2023-08-06T04:06:07;23.13;;;16.83;;
51288;SDS011;37372;52.294;5.152;2023-08-06T04:08:41;27.27;;;18.27;;
51288;SDS011;37372;52.294;5.152;2023-08-06T04:11:08;24.63;;;16.65;;
51288;SDS011;37372;52.294;5.152;2023-08-06T04:13:42;23.45;;;16.70;;
51288;SDS011;37372;52.294;5.152;2023-08-06T04:16:10;24.20;;;17.35;;
51288;SDS011;37372;52.294;5.152;2023-08-06T04:18:37;20.80;;;14.75;;
51288;SDS011;37372;52.294;5.152;2023-08-06T04:21:02;24.15;;;16.05;;
51288;SDS011;37372;52.294;5.152;2023-08-06T04:23:36;20.27;;;14.77;;
51288;SDS011;37372;52.294;5.152;2023-08-06T04:26:09;28.25;;;14.13;;
51288;SDS011;37372;52.294;5.152;2023-08-06T04:28:43;23.08;;;14.35;;
51288;SDS011;37372;52.294;5.152;2023-08-06T04:31:10;18.83;;;13.40;;
51288;SDS011;37372;52.294;5.152;2023-08-06T04:33:50;22.50;;;15.27;;
51288;SDS011;37372;52.294;5.152;2023-08-06T04:36:17;24.63;;;14.68;;
51288;SDS011;37372;52.294;5.152;2023-08-06T04:38:49;20.83;;;15.20;;
51288;SDS011;37372;52.294;5.152;2023-08-06T04:41:17;20.40;;;14.27;;
51288;SDS011;37372;52.294;5.152;2023-08-06T04:43:46;22.42;;;15.55;;
51288;SDS011;37372;52.294;5.152;2023-08-06T04:46:14;19.90;;;14.50;;
51288;SDS011;37372;52.294;5.152;2023-08-06T04:48:48;25.95;;;14.73;;
51288;SDS011;37372;52.294;5.152;2023-08-06T04:51:15;22.85;;;15.95;;
51288;SDS011;37372;52.294;5.152;2023-08-06T04:53:47;24.67;;;15.52;;
51288;SDS011;37372;52.294;5.152;2023-08-06T04:56:14;22.92;;;15.15;;
51288;SDS011;37372;52.294;5.152;2023-08-06T05:01:20;25.67;;;16.08;;
51288;SDS011;37372;52.294;5.152;2023-08-06T05:03:50;24.67;;;16.02;;
51288;SDS011;37372;52.294;5.152;2023-08-06T05:06:18;24.60;;;16.65;;
51288;SDS011;37372;52.294;5.152;2023-08-06T05:08:53;29.77;;;16.90;;
51288;SDS011;37372;52.294;5.152;2023-08-06T05:11:21;28.17;;;18.05;;
51288;SDS011;37372;52.294;5.152;2023-08-06T05:13:52;32.22;;;19.30;;
51288;SDS011;37372;52.294;5.152;2023-08-06T05:16:19;26.77;;;17.55;;
51288;SDS011;37372;52.294;5.152;2023-08-06T05:18:54;30.58;;;18.08;;
51288;SDS011;37372;52.294;5.152;2023-08-06T05:21:20;28.48;;;18.67;;
51288;SDS011;37372;52.294;5.152;2023-08-06T05:23:57;33.83;;;22.42;;
51288;SDS011;37372;52.294;5.152;2023-08-06T05:26:24;35.45;;;22.65;;
51288;SDS011;37372;52.294;5.152;2023-08-06T05:28:51;37.33;;;24.70;;
51288;SDS011;37372;52.294;5.152;2023-08-06T05:31:19;37.92;;;24.70;;
51288;SDS011;37372;52.294;5.152;2023-08-06T05:36:30;33.90;;;26.38;;
51288;SDS011;37372;52.294;5.152;2023-08-06T05:39:02;33.90;;;23.35;;
51288;SDS011;37372;52.294;5.152;2023-08-06T05:41:29;33.65;;;23.70;;
51288;SDS011;37372;52.294;5.152;2023-08-06T05:43:59;30.17;;;21.08;;
51288;SDS011;37372;52.294;5.152;2023-08-06T05:46:26;32.75;;;21.85;;
51288;SDS011;37372;52.294;5.152;2023-08-06T05:49:02;25.02;;;18.75;;
51288;SDS011;37372;52.294;5.152;2023-08-06T05:51:29;22.52;;;17.40;;
51288;SDS011;37372;52.294;5.152;2023-08-06T05:54:00;23.80;;;17.33;;
51288;SDS011;37372;52.294;5.152;2023-08-06T05:56:27;20.55;;;16.52;;
51288;SDS011;37372;52.294;5.152;2023-08-06T06:01:33;20.55;;;16.60;;
51288;SDS011;37372;52.294;5.152;2023-08-06T06:06:55;15.23;;;10.63;;
51288;SDS011;37372;52.294;5.152;2023-08-06T06:09:20;12.68;;;9.00;;
51288;SDS011;37372;52.294;5.152;2023-08-06T06:11:46;12.60;;;8.98;;
51288;SDS011;37372;52.294;5.152;2023-08-06T06:14:19;12.93;;;8.90;;
51288;SDS011;37372;52.294;5.152;2023-08-06T06:16:44;11.32;;;8.77;;
51288;SDS011;37372;52.294;5.152;2023-08-06T06:19:10;9.13;;;7.30;;
51288;SDS011;37372;52.294;5.152;2023-08-06T06:21:36;8.75;;;7.00;;
51288;SDS011;37372;52.294;5.152;2023-08-06T06:24:05;10.90;;;7.15;;
51288;SDS011;37372;52.294;5.152;2023-08-06T06:26:40;7.97;;;6.40;;
51288;SDS011;37372;52.294;5.152;2023-08-06T06:29:06;8.55;;;5.70;;
51288;SDS011;37372;52.294;5.152;2023-08-06T06:31:36;8.45;;;5.25;;
51288;SDS011;37372;52.294;5.152;2023-08-06T06:34:08;6.68;;;4.60;;
51288;SDS011;37372;52.294;5.152;2023-08-06T06:36:36;6.93;;;3.53;;
51288;SDS011;37372;52.294;5.152;2023-08-06T06:39:05;9.10;;;3.95;;
51288;SDS011;37372;52.294;5.152;2023-08-06T06:41:35;6.43;;;4.32;;
51288;SDS011;37372;52.294;5.152;2023-08-06T06:44:05;6.70;;;4.82;;
51288;SDS011;37372;52.294;5.152;2023-08-06T06:46:34;7.85;;;5.63;;
51288;SDS011;37372;52.294;5.152;2023-08-06T06:49:13;15.88;;;7.55;;
51288;SDS011;37372;52.294;5.152;2023-08-06T06:51:42;10.65;;;6.97;;
51288;SDS011;37372;52.294;5.152;2023-08-06T06:54:08;15.70;;;8.98;;
51288;SDS011;37372;52.294;5.152;2023-08-06T06:56:42;13.20;;;9.27;;
51288;SDS011;37372;52.294;5.152;2023-08-06T06:59:12;17.15;;;9.13;;
51288;SDS011;37372;52.294;5.152;2023-08-06T07:01:40;13.50;;;10.75;;
51288;SDS011;37372;52.294;5.152;2023-08-06T07:04:33;12.15;;;8.50;;
51288;SDS011;37372;52.294;5.152;2023-08-06T07:06:59;13.90;;;9.40;;
51288;SDS011;37372;52.294;5.152;2023-08-06T07:09:24;14.38;;;9.10;;
51288;SDS011;37372;52.294;5.152;2023-08-06T07:12:04;15.90;;;11.07;;
51288;SDS011;37372;52.294;5.152;2023-08-06T07:14:30;21.27;;;11.75;;
51288;SDS011;37372;52.294;5.152;2023-08-06T07:16:56;15.23;;;10.27;;
51288;SDS011;37372;52.294;5.152;2023-08-06T07:19:23;14.68;;;10.43;;
51288;SDS011;37372;52.294;5.152;2023-08-06T07:21:49;15.18;;;10.10;;
51288;SDS011;37372;52.294;5.152;2023-08-06T07:24:19;22.02;;;9.57;;
51288;SDS011;37372;52.294;5.152;2023-08-06T07:26:50;18.65;;;7.38;;
51288;SDS011;37372;52.294;5.152;2023-08-06T07:29:19;12.10;;;6.20;;
51288;SDS011;37372;52.294;5.152;2023-08-06T07:31:47;16.38;;;5.88;;
51288;SDS011;37372;52.294;5.152;2023-08-06T07:34:20;8.98;;;6.05;;
51288;SDS011;37372;52.294;5.152;2023-08-06T07:36:54;12.52;;;6.38;;
51288;SDS011;37372;52.294;5.152;2023-08-06T07:39:22;12.35;;;6.60;;
51288;SDS011;37372;52.294;5.152;2023-08-06T07:41:50;9.13;;;6.97;;
51288;SDS011;37372;52.294;5.152;2023-08-06T07:44:25;16.90;;;8.38;;
51288;SDS011;37372;52.294;5.152;2023-08-06T07:47:03;13.27;;;7.75;;
51288;SDS011;37372;52.294;5.152;2023-08-06T07:49:29;13.23;;;8.95;;
51288;SDS011;37372;52.294;5.152;2023-08-06T07:51:56;13.55;;;8.15;;
51288;SDS011;37372;52.294;5.152;2023-08-06T07:54:26;13.65;;;9.57;;
51288;SDS011;37372;52.294;5.152;2023-08-06T07:56:55;12.32;;;8.65;;
51288;SDS011;37372;52.294;5.152;2023-08-06T07:59:27;13.95;;;9.32;;
51288;SDS011;37372;52.294;5.152;2023-08-06T08:01:55;10.75;;;8.57;;
51288;SDS011;37372;52.294;5.152;2023-08-06T08:04:25;12.27;;;8.32;;
51288;SDS011;37372;52.294;5.152;2023-08-06T08:06:57;9.45;;;7.75;;
51288;SDS011;37372;52.294;5.152;2023-08-06T08:09:31;10.52;;;7.18;;
51288;SDS011;37372;52.294;5.152;2023-08-06T08:12:01;9.27;;;6.35;;
51288;SDS011;37372;52.294;5.152;2023-08-06T08:14:29;9.95;;;6.72;;
51288;SDS011;37372;52.294;5.152;2023-08-06T08:16:59;12.07;;;6.78;;
51288;SDS011;37372;52.294;5.152;2023-08-06T08:19:26;12.55;;;6.68;;
51288;SDS011;37372;52.294;5.152;2023-08-06T08:21:54;10.55;;;6.57;;
51288;SDS011;37372;52.294;5.152;2023-08-06T08:27:10;10.63;;;6.55;;
51288;SDS011;37372;52.294;5.152;2023-08-06T08:29:37;9.80;;;6.60;;
51288;SDS011;37372;52.294;5.152;2023-08-06T08:32:02;10.57;;;6.95;;
51288;SDS011;37372;52.294;5.152;2023-08-06T08:34:32;12.40;;;7.18;;
51288;SDS011;37372;52.294;5.152;2023-08-06T08:36:57;16.17;;;7.40;;
51288;SDS011;37372;52.294;5.152;2023-08-06T08:39:26;11.52;;;7.05;;
51288;SDS011;37372;52.294;5.152;2023-08-06T08:41:58;12.32;;;8.13;;
51288;SDS011;37372;52.294;5.152;2023-08-06T08:44:28;12.73;;;8.82;;
51288;SDS011;37372;52.294;5.152;2023-08-06T08:47:03;13.15;;;8.95;;
51288;SDS011;37372;52.294;5.152;2023-08-06T08:49:29;15.07;;;9.25;;
51288;SDS011;37372;52.294;5.152;2023-08-06T08:52:00;15.38;;;9.90;;
51288;SDS011;37372;52.294;5.152;2023-08-06T08:54:36;15.48;;;9.73;;
51288;SDS011;37372;52.294;5.152;2023-08-06T08:57:06;15.90;;;12.27;;
51288;SDS011;37372;52.294;5.152;2023-08-06T08:59:35;15.35;;;9.57;;
51288;SDS011;37372;52.294;5.152;2023-08-06T09:02:02;20.48;;;11.15;;
51288;SDS011;37372;52.294;5.152;2023-08-06T09:04:32;17.38;;;10.00;;
51288;SDS011;37372;52.294;5.152;2023-08-06T09:07:06;17.73;;;10.07;;
51288;SDS011;37372;52.294;5.152;2023-08-06T09:09:38;21.55;;;11.48;;
51288;SDS011;37372;52.294;5.152;2023-08-06T09:12:09;25.70;;;12.38;;
51288;SDS011;37372;52.294;5.152;2023-08-06T09:14:44;20.65;;;12.73;;
51288;SDS011;37372;52.294;5.152;2023-08-06T09:17:11;21.92;;;11.75;;
51288;SDS011;37372;52.294;5.152;2023-08-06T09:19:44;17.67;;;11.88;;
51288;SDS011;37372;52.294;5.152;2023-08-06T09:22:14;22.63;;;12.27;;
51288;SDS011;37372;52.294;5.152;2023-08-06T09:24:46;20.70;;;12.65;;
51288;SDS011;37372;52.294;5.152;2023-08-06T09:27:13;19.48;;;13.32;;
51288;SDS011;37372;52.294;5.152;2023-08-06T09:29:42;16.90;;;11.27;;
51288;SDS011;37372;52.294;5.152;2023-08-06T09:32:11;25.65;;;12.40;;
51288;SDS011;37372;52.294;5.152;2023-08-06T09:34:45;17.13;;;10.82;;
51288;SDS011;37372;52.294;5.152;2023-08-06T09:37:25;19.23;;;10.35;;
51288;SDS011;37372;52.294;5.152;2023-08-06T09:40:00;20.42;;;11.75;;
51288;SDS011;37372;52.294;5.152;2023-08-06T09:42:25;21.27;;;11.98;;
51288;SDS011;37372;52.294;5.152;2023-08-06T09:44:54;20.98;;;10.50;;
51288;SDS011;37372;52.294;5.152;2023-08-06T09:47:33;23.25;;;11.60;;
51288;SDS011;37372;52.294;5.152;2023-08-06T09:50:00;21.25;;;11.18;;
51288;SDS011;37372;52.294;5.152;2023-08-06T09:52:31;24.05;;;11.63;;
51288;SDS011;37372;52.294;5.152;2023-08-06T09:54:58;15.82;;;10.35;;
51288;SDS011;37372;52.294;5.152;2023-08-06T09:57:29;16.10;;;9.73;;
51288;SDS011;37372;52.294;5.152;2023-08-06T09:59:57;23.30;;;11.25;;
51288;SDS011;37372;52.294;5.152;2023-08-06T10:02:22;22.55;;;12.13;;
51288;SDS011;37372;52.294;5.152;2023-08-06T10:04:54;24.38;;;12.93;;
51288;SDS011;37372;52.294;5.152;2023-08-06T10:07:22;30.13;;;11.80;;
51288;SDS011;37372;52.294;5.152;2023-08-06T10:09:56;25.58;;;11.05;;
51288;SDS011;37372;52.294;5.152;2023-08-06T10:12:24;21.42;;;9.52;;
51288;SDS011;37372;52.294;5.152;2023-08-06T10:14:55;18.17;;;8.90;;
51288;SDS011;37372;52.294;5.152;2023-08-06T10:17:24;18.80;;;8.25;;
51288;SDS011;37372;52.294;5.152;2023-08-06T10:19:58;19.10;;;9.02;;
51288;SDS011;37372;52.294;5.152;2023-08-06T10:22:24;22.80;;;9.90;;
51288;SDS011;37372;52.294;5.152;2023-08-06T10:24:57;17.00;;;7.55;;
51288;SDS011;37372;52.294;5.152;2023-08-06T10:27:29;16.13;;;6.90;;
51288;SDS011;37372;52.294;5.152;2023-08-06T10:33:09;13.75;;;6.47;;
51288;SDS011;37372;52.294;5.152;2023-08-06T10:35:45;13.23;;;5.82;;
51288;SDS011;37372;52.294;5.152;2023-08-06T10:38:17;11.57;;;4.55;;
51288;SDS011;37372;52.294;5.152;2023-08-06T10:40:49;8.48;;;4.22;;
51288;SDS011;37372;52.294;5.152;2023-08-06T10:45:55;14.20;;;4.80;;
51288;SDS011;37372;52.294;5.152;2023-08-06T10:48:29;15.48;;;6.07;;
51288;SDS011;37372;52.294;5.152;2023-08-06T10:51:01;21.42;;;7.93;;
51288;SDS011;37372;52.294;5.152;2023-08-06T10:53:29;13.52;;;5.68;;
51288;SDS011;37372;52.294;5.152;2023-08-06T10:55:55;10.57;;;4.70;;
51288;SDS011;37372;52.294;5.152;2023-08-06T10:58:21;11.13;;;4.53;;
51288;SDS011;37372;52.294;5.152;2023-08-06T11:00:47;12.20;;;4.55;;
51288;SDS011;37372;52.294;5.152;2023-08-06T11:03:12;11.38;;;4.35;;
51288;SDS011;37372;52.294;5.152;2023-08-06T11:05:39;10.98;;;4.13;;
51288;SDS011;37372;52.294;5.152;2023-08-06T11:08:05;8.70;;;3.42;;
51288;SDS011;37372;52.294;5.152;2023-08-06T11:10:32;8.45;;;3.92;;
51288;SDS011;37372;52.294;5.152;2023-08-06T11:13:01;8.98;;;3.63;;
51288;SDS011;37372;52.294;5.152;2023-08-06T11:15:29;9.20;;;4.05;;
51288;SDS011;37372;52.294;5.152;2023-08-06T11:17:56;7.13;;;3.55;;
51288;SDS011;37372;52.294;5.152;2023-08-06T11:20:21;7.60;;;3.38;;
51288;SDS011;37372;52.294;5.152;2023-08-06T11:22:49;9.15;;;3.42;;
51288;SDS011;37372;52.294;5.152;2023-08-06T11:25:15;11.15;;;4.03;;
51288;SDS011;37372;52.294;5.152;2023-08-06T11:27:41;11.60;;;4.10;;
51288;SDS011;37372;52.294;5.152;2023-08-06T11:30:07;12.02;;;3.00;;
51288;SDS011;37372;52.294;5.152;2023-08-06T11:32:46;9.52;;;3.67;;
51288;SDS011;37372;52.294;5.152;2023-08-06T11:35:13;5.90;;;3.03;;
51288;SDS011;37372;52.294;5.152;2023-08-06T11:37:43;8.82;;;3.63;;
51288;SDS011;37372;52.294;5.152;2023-08-06T11:40:14;6.68;;;2.90;;
51288;SDS011;37372;52.294;5.152;2023-08-06T11:42:42;11.48;;;3.58;;
51288;SDS011;37372;52.294;5.152;2023-08-06T11:45:07;10.88;;;3.88;;
51288;SDS011;37372;52.294;5.152;2023-08-06T11:47:37;8.98;;;4.32;;
51288;SDS011;37372;52.294;5.152;2023-08-06T11:50:21;7.75;;;4.00;;
51288;SDS011;37372;52.294;5.152;2023-08-06T11:52:58;7.82;;;3.92;;
51288;SDS011;37372;52.294;5.152;2023-08-06T11:55:25;8.13;;;4.15;;
51288;SDS011;37372;52.294;5.152;2023-08-06T11:57:53;9.68;;;3.58;;
51288;SDS011;37372;52.294;5.152;2023-08-06T12:00:22;6.15;;;2.60;;
51288;SDS011;37372;52.294;5.152;2023-08-06T12:02:52;6.70;;;2.50;;
51288;SDS011;37372;52.294;5.152;2023-08-06T12:05:29;10.45;;;3.55;;
51288;SDS011;37372;52.294;5.152;2023-08-06T12:07:59;11.93;;;4.15;;
51288;SDS011;37372;52.294;5.152;2023-08-06T12:10:31;7.32;;;3.15;;
51288;SDS011;37372;52.294;5.152;2023-08-06T12:12:57;6.80;;;3.35;;
51288;SDS011;37372;52.294;5.152;2023-08-06T12:15:23;6.65;;;2.50;;
51288;SDS011;37372;52.294;5.152;2023-08-06T12:17:50;7.47;;;3.40;;
51288;SDS011;37372;52.294;5.152;2023-08-06T12:20:16;5.75;;;2.85;;
51288;SDS011;37372;52.294;5.152;2023-08-06T12:22:41;4.57;;;2.70;;
51288;SDS011;37372;52.294;5.152;2023-08-06T12:25:16;6.45;;;2.83;;
51288;SDS011;37372;52.294;5.152;2023-08-06T12:27:49;5.57;;;2.53;;
51288;SDS011;37372;52.294;5.152;2023-08-06T12:30:22;6.97;;;2.95;;
51288;SDS011;37372;52.294;5.152;2023-08-06T12:32:49;3.53;;;2.15;;
51288;SDS011;37372;52.294;5.152;2023-08-06T12:35:21;5.22;;;3.28;;
51288;SDS011;37372;52.294;5.152;2023-08-06T12:37:47;6.50;;;2.80;;
51288;SDS011;37372;52.294;5.152;2023-08-06T12:40:22;6.10;;;2.60;;
51288;SDS011;37372;52.294;5.152;2023-08-06T12:42:51;9.52;;;3.15;;
51288;SDS011;37372;52.294;5.152;2023-08-06T12:45:24;6.05;;;2.42;;
51288;SDS011;37372;52.294;5.152;2023-08-06T12:47:50;5.57;;;3.30;;
51288;SDS011;37372;52.294;5.152;2023-08-06T12:52:59;6.75;;;2.88;;
51288;SDS011;37372;52.294;5.152;2023-08-06T12:55:25;6.97;;;2.40;;
51288;SDS011;37372;52.294;5.152;2023-08-06T12:57:51;5.93;;;2.80;;
51288;SDS011;37372;52.294;5.152;2023-08-06T13:00:26;4.95;;;2.72;;
51288;SDS011;37372;52.294;5.152;2023-08-06T13:02:56;6.10;;;3.05;;
51288;SDS011;37372;52.294;5.152;2023-08-06T13:05:22;5.78;;;2.75;;
51288;SDS011;37372;52.294;5.152;2023-08-06T13:07:53;6.53;;;2.25;;
51288;SDS011;37372;52.294;5.152;2023-08-06T13:10:21;6.55;;;2.80;;
51288;SDS011;37372;52.294;5.152;2023-08-06T13:15:24;4.10;;;2.40;;
51288;SDS011;37372;52.294;5.152;2023-08-06T13:17:55;5.43;;;2.35;;
51288;SDS011;37372;52.294;5.152;2023-08-06T13:20:24;5.95;;;2.50;;
51288;SDS011;37372;52.294;5.152;2023-08-06T13:22:58;4.80;;;2.40;;
51288;SDS011;37372;52.294;5.152;2023-08-06T13:25:31;5.80;;;2.50;;
51288;SDS011;37372;52.294;5.152;2023-08-06T13:28:01;4.63;;;2.00;;
51288;SDS011;37372;52.294;5.152;2023-08-06T13:30:27;6.70;;;2.55;;
51288;SDS011;37372;52.294;5.152;2023-08-06T13:32:56;6.60;;;2.92;;
51288;SDS011;37372;52.294;5.152;2023-08-06T13:35:29;4.20;;;2.60;;
51288;SDS011;37372;52.294;5.152;2023-08-06T13:37:57;6.47;;;3.13;;
51288;SDS011;37372;52.294;5.152;2023-08-06T13:40:30;5.85;;;3.90;;
51288;SDS011;37372;52.294;5.152;2023-08-06T13:43:00;8.40;;;4.40;;
51288;SDS011;37372;52.294;5.152;2023-08-06T13:45:31;5.05;;;3.42;;
51288;SDS011;37372;52.294;5.152;2023-08-06T13:48:03;5.85;;;3.58;;
51288;SDS011;37372;52.294;5.152;2023-08-06T13:50:32;6.03;;;3.53;;
51288;SDS011;37372;52.294;5.152;2023-08-06T13:53:04;6.93;;;3.10;;
51288;SDS011;37372;52.294;5.152;2023-08-06T13:55:34;6.65;;;3.58;;
51288;SDS011;37372;52.294;5.152;2023-08-06T13:58:00;8.10;;;5.15;;
51288;SDS011;37372;52.294;5.152;2023-08-06T14:00:35;7.93;;;3.33;;
51288;SDS011;37372;52.294;5.152;2023-08-06T14:03:02;5.57;;;3.30;;
51288;SDS011;37372;52.294;5.152;2023-08-06T14:05:34;5.05;;;2.78;;
51288;SDS011;37372;52.294;5.152;2023-08-06T14:08:02;4.63;;;2.50;;
51288;SDS011;37372;52.294;5.152;2023-08-06T14:10:36;5.80;;;2.28;;
51288;SDS011;37372;52.294;5.152;2023-08-06T14:13:11;9.45;;;2.35;;
51288;SDS011;37372;52.294;5.152;2023-08-06T14:15:40;3.53;;;1.80;;
51288;SDS011;37372;52.294;5.152;2023-08-06T14:18:07;4.28;;;2.30;;
51288;SDS011;37372;52.294;5.152;2023-08-06T14:20:35;4.20;;;2.42;;
51288;SDS011;37372;52.294;5.152;2023-08-06T14:23:13;3.10;;;1.67;;
51288;SDS011;37372;52.294;5.152;2023-08-06T14:25:44;4.63;;;1.52;;
51288;SDS011;37372;52.294;5.152;2023-08-06T14:28:10;4.95;;;1.83;;
51288;SDS011;37372;52.294;5.152;2023-08-06T14:30:41;4.60;;;1.60;;
51288;SDS011;37372;52.294;5.152;2023-08-06T14:33:07;3.65;;;1.23;;
51288;SDS011;37372;52.294;5.152;2023-08-06T14:35:43;5.88;;;1.70;;
51288;SDS011;37372;52.294;5.152;2023-08-06T14:38:12;4.15;;;0.98;;
51288;SDS011;37372;52.294;5.152;2023-08-06T14:40:48;9.13;;;1.33;;
51288;SDS011;37372;52.294;5.152;2023-08-06T14:43:19;5.07;;;1.02;;
51288;SDS011;37372;52.294;5.152;2023-08-06T14:45:49;5.43;;;1.02;;
51288;SDS011;37372;52.294;5.152;2023-08-06T14:48:23;7.95;;;1.80;;
51288;SDS011;37372;52.294;5.152;2023-08-06T14:50:48;5.45;;;2.08;;
51288;SDS011;37372;52.294;5.152;2023-08-06T14:53:18;4.03;;;1.20;;
51288;SDS011;37372;52.294;5.152;2023-08-06T14:55:44;6.20;;;1.05;;
51288;SDS011;37372;52.294;5.152;2023-08-06T14:58:13;9.88;;;1.05;;
51288;SDS011;37372;52.294;5.152;2023-08-06T15:03:20;4.80;;;1.13;;
51288;SDS011;37372;52.294;5.152;2023-08-06T15:05:48;5.60;;;1.35;;
51288;SDS011;37372;52.294;5.152;2023-08-06T15:08:23;5.50;;;0.85;;
51288;SDS011;37372;52.294;5.152;2023-08-06T15:10:51;9.73;;;1.13;;
51288;SDS011;37372;52.294;5.152;2023-08-06T15:13:18;4.15;;;0.85;;
51288;SDS011;37372;52.294;5.152;2023-08-06T15:15:48;6.28;;;0.95;;
51288;SDS011;37372;52.294;5.152;2023-08-06T15:18:18;2.67;;;0.70;;
51288;SDS011;37372;52.294;5.152;2023-08-06T15:20:54;10.52;;;1.52;;
51288;SDS011;37372;52.294;5.152;2023-08-06T15:23:20;7.95;;;0.98;;
51288;SDS011;37372;52.294;5.152;2023-08-06T15:25:51;5.25;;;0.93;;
51288;SDS011;37372;52.294;5.152;2023-08-06T15:28:23;5.05;;;0.80;;
51288;SDS011;37372;52.294;5.152;2023-08-06T15:30:51;5.03;;;0.98;;
51288;SDS011;37372;52.294;5.152;2023-08-06T15:33:21;6.28;;;1.10;;